sensor_id;sensor_type;location;lat;lon;timestamp;P1;durP1;ratioP1;P2;durP2;ratioP2
2211;SDS011;48849;48.758;9.158;2023-05-01T00:00:35;7.60;;;6.78;;
2211;SDS011;48849;48.758;9.158;2023-05-01T00:03:04;7.80;;;7.10;;
2211;SDS011;48849;48.758;9.158;2023-05-01T00:05:33;7.28;;;6.68;;
2211;SDS011;48849;48.758;9.158;2023-05-01T00:08:04;7.45;;;6.85;;
2211;SDS011;48849;48.758;9.158;2023-05-01T00:10:36;7.03;;;6.43;;
2211;SDS011;48849;48.758;9.158;2023-05-01T00:13:04;8.45;;;7.65;;
2211;SDS011;48849;48.758;9.158;2023-05-01T00:15:35;7.85;;;7.13;;
2211;SDS011;48849;48.758;9.158;2023-05-01T00:18:04;8.43;;;7.00;;
2211;SDS011;48849;48.758;9.158;2023-05-01T00:20:32;7.55;;;6.82;;
2211;SDS011;48849;48.758;9.158;2023-05-01T00:22:59;9.05;;;7.60;;
2211;SDS011;48849;48.758;9.158;2023-05-01T00:25:25;7.95;;;7.15;;
2211;SDS011;48849;48.758;9.158;2023-05-01T00:27:52;8.50;;;7.60;;
2211;SDS011;48849;48.758;9.158;2023-05-01T00:30:19;11.88;;;7.80;;
2211;SDS011;48849;48.758;9.158;2023-05-01T00:32:47;9.32;;;8.45;;
2211;SDS011;48849;48.758;9.158;2023-05-01T00:35:15;8.43;;;7.72;;
2211;SDS011;48849;48.758;9.158;2023-05-01T00:37:42;8.15;;;7.38;;
2211;SDS011;48849;48.758;9.158;2023-05-01T00:40:12;7.90;;;7.20;;
2211;SDS011;48849;48.758;9.158;2023-05-01T00:42:39;11.27;;;8.30;;
2211;SDS011;48849;48.758;9.158;2023-05-01T00:45:06;8.38;;;7.57;;
2211;SDS011;48849;48.758;9.158;2023-05-01T00:47:37;8.75;;;7.75;;
2211;SDS011;48849;48.758;9.158;2023-05-01T00:50:04;8.68;;;7.78;;
2211;SDS011;48849;48.758;9.158;2023-05-01T00:52:34;10.70;;;8.02;;
2211;SDS011;48849;48.758;9.158;2023-05-01T00:55:01;10.70;;;8.60;;
2211;SDS011;48849;48.758;9.158;2023-05-01T00:57:30;8.13;;;7.35;;
2211;SDS011;48849;48.758;9.158;2023-05-01T00:59:57;9.15;;;8.25;;
2211;SDS011;48849;48.758;9.158;2023-05-01T01:02:24;8.80;;;8.00;;
2211;SDS011;48849;48.758;9.158;2023-05-01T01:04:51;9.45;;;8.55;;
2211;SDS011;48849;48.758;9.158;2023-05-01T01:07:21;10.20;;;8.15;;
2211;SDS011;48849;48.758;9.158;2023-05-01T01:09:58;8.77;;;7.97;;
2211;SDS011;48849;48.758;9.158;2023-05-01T01:12:31;8.95;;;7.60;;
2211;SDS011;48849;48.758;9.158;2023-05-01T01:15:09;9.70;;;8.25;;
2211;SDS011;48849;48.758;9.158;2023-05-01T01:17:44;10.65;;;8.75;;
2211;SDS011;48849;48.758;9.158;2023-05-01T01:20:29;10.23;;;8.27;;
2211;SDS011;48849;48.758;9.158;2023-05-01T01:26:13;9.15;;;8.25;;
2211;SDS011;48849;48.758;9.158;2023-05-01T01:29:12;8.27;;;7.47;;
2211;SDS011;48849;48.758;9.158;2023-05-01T01:32:00;10.02;;;9.05;;
2211;SDS011;48849;48.758;9.158;2023-05-01T01:34:37;9.05;;;8.15;;
2211;SDS011;48849;48.758;9.158;2023-05-01T01:37:10;8.77;;;7.63;;
2211;SDS011;48849;48.758;9.158;2023-05-01T01:39:44;8.57;;;7.78;;
2211;SDS011;48849;48.758;9.158;2023-05-01T01:42:14;9.45;;;8.35;;
2211;SDS011;48849;48.758;9.158;2023-05-01T01:44:46;10.05;;;9.15;;
2211;SDS011;48849;48.758;9.158;2023-05-01T01:47:16;9.90;;;8.80;;
2211;SDS011;48849;48.758;9.158;2023-05-01T01:49:48;10.18;;;8.25;;
2211;SDS011;48849;48.758;9.158;2023-05-01T01:52:18;9.40;;;8.60;;
2211;SDS011;48849;48.758;9.158;2023-05-01T01:54:47;9.00;;;8.10;;
2211;SDS011;48849;48.758;9.158;2023-05-01T01:57:18;9.27;;;8.40;;
2211;SDS011;48849;48.758;9.158;2023-05-01T01:59:46;9.93;;;8.93;;
2211;SDS011;48849;48.758;9.158;2023-05-01T02:02:16;9.32;;;8.52;;
2211;SDS011;48849;48.758;9.158;2023-05-01T02:04:45;9.80;;;8.80;;
2211;SDS011;48849;48.758;9.158;2023-05-01T02:07:16;9.30;;;8.50;;
2211;SDS011;48849;48.758;9.158;2023-05-01T02:09:49;8.93;;;8.07;;
2211;SDS011;48849;48.758;9.158;2023-05-01T02:12:18;9.63;;;8.15;;
2211;SDS011;48849;48.758;9.158;2023-05-01T02:14:47;12.75;;;8.43;;
2211;SDS011;48849;48.758;9.158;2023-05-01T02:17:15;8.15;;;7.45;;
2211;SDS011;48849;48.758;9.158;2023-05-01T02:19:44;9.60;;;8.70;;
2211;SDS011;48849;48.758;9.158;2023-05-01T02:22:14;9.40;;;8.50;;
2211;SDS011;48849;48.758;9.158;2023-05-01T02:24:44;10.48;;;7.85;;
2211;SDS011;48849;48.758;9.158;2023-05-01T02:27:14;9.27;;;8.48;;
2211;SDS011;48849;48.758;9.158;2023-05-01T02:29:45;9.70;;;8.80;;
2211;SDS011;48849;48.758;9.158;2023-05-01T02:32:13;9.73;;;8.80;;
2211;SDS011;48849;48.758;9.158;2023-05-01T02:34:40;10.73;;;8.82;;
2211;SDS011;48849;48.758;9.158;2023-05-01T02:37:07;12.27;;;8.98;;
2211;SDS011;48849;48.758;9.158;2023-05-01T02:39:38;9.80;;;8.80;;
2211;SDS011;48849;48.758;9.158;2023-05-01T02:42:05;8.43;;;7.72;;
2211;SDS011;48849;48.758;9.158;2023-05-01T02:44:37;9.88;;;8.98;;
2211;SDS011;48849;48.758;9.158;2023-05-01T02:47:07;9.93;;;8.93;;
2211;SDS011;48849;48.758;9.158;2023-05-01T02:49:36;11.63;;;9.32;;
2211;SDS011;48849;48.758;9.158;2023-05-01T02:52:05;11.15;;;8.52;;
2211;SDS011;48849;48.758;9.158;2023-05-01T02:54:34;8.98;;;8.20;;
2211;SDS011;48849;48.758;9.158;2023-05-01T02:57:04;10.40;;;9.00;;
2211;SDS011;48849;48.758;9.158;2023-05-01T02:59:31;9.35;;;8.45;;
2211;SDS011;48849;48.758;9.158;2023-05-01T03:01:58;11.48;;;7.65;;
2211;SDS011;48849;48.758;9.158;2023-05-01T03:04:26;8.50;;;7.70;;
2211;SDS011;48849;48.758;9.158;2023-05-01T03:06:53;8.48;;;7.78;;
2211;SDS011;48849;48.758;9.158;2023-05-01T03:09:21;9.45;;;8.57;;
2211;SDS011;48849;48.758;9.158;2023-05-01T03:11:47;8.80;;;7.90;;
2211;SDS011;48849;48.758;9.158;2023-05-01T03:14:16;9.80;;;8.30;;
2211;SDS011;48849;48.758;9.158;2023-05-01T03:16:43;18.27;;;8.57;;
2211;SDS011;48849;48.758;9.158;2023-05-01T03:19:09;8.68;;;7.13;;
2211;SDS011;48849;48.758;9.158;2023-05-01T03:21:37;8.73;;;7.80;;
2211;SDS011;48849;48.758;9.158;2023-05-01T03:24:04;9.68;;;8.77;;
2211;SDS011;48849;48.758;9.158;2023-05-01T03:26:31;8.63;;;7.80;;
2211;SDS011;48849;48.758;9.158;2023-05-01T03:28:58;8.45;;;7.70;;
2211;SDS011;48849;48.758;9.158;2023-05-01T03:31:26;9.23;;;8.32;;
2211;SDS011;48849;48.758;9.158;2023-05-01T03:33:53;8.63;;;7.90;;
2211;SDS011;48849;48.758;9.158;2023-05-01T03:36:20;8.75;;;7.95;;
2211;SDS011;48849;48.758;9.158;2023-05-01T03:38:47;8.40;;;7.60;;
2211;SDS011;48849;48.758;9.158;2023-05-01T03:41:14;8.55;;;7.70;;
2211;SDS011;48849;48.758;9.158;2023-05-01T03:43:41;8.68;;;7.80;;
2211;SDS011;48849;48.758;9.158;2023-05-01T03:46:08;9.40;;;8.40;;
2211;SDS011;48849;48.758;9.158;2023-05-01T03:48:37;9.15;;;7.88;;
2211;SDS011;48849;48.758;9.158;2023-05-01T03:51:04;10.50;;;8.30;;
2211;SDS011;48849;48.758;9.158;2023-05-01T03:53:31;9.68;;;8.77;;
2211;SDS011;48849;48.758;9.158;2023-05-01T03:55:58;10.32;;;9.23;;
2211;SDS011;48849;48.758;9.158;2023-05-01T03:58:28;9.50;;;8.50;;
2211;SDS011;48849;48.758;9.158;2023-05-01T04:00:55;9.85;;;9.05;;
2211;SDS011;48849;48.758;9.158;2023-05-01T04:03:24;11.75;;;9.00;;
2211;SDS011;48849;48.758;9.158;2023-05-01T04:05:53;9.55;;;8.65;;
2211;SDS011;48849;48.758;9.158;2023-05-01T04:08:20;9.05;;;8.25;;
2211;SDS011;48849;48.758;9.158;2023-05-01T04:10:47;9.50;;;8.60;;
2211;SDS011;48849;48.758;9.158;2023-05-01T04:13:14;9.82;;;8.15;;
2211;SDS011;48849;48.758;9.158;2023-05-01T04:15:42;8.85;;;7.75;;
2211;SDS011;48849;48.758;9.158;2023-05-01T04:18:10;9.77;;;8.30;;
2211;SDS011;48849;48.758;9.158;2023-05-01T04:20:37;9.60;;;8.80;;
2211;SDS011;48849;48.758;9.158;2023-05-01T04:23:08;9.20;;;8.30;;
2211;SDS011;48849;48.758;9.158;2023-05-01T04:25:35;9.20;;;8.20;;
2211;SDS011;48849;48.758;9.158;2023-05-01T04:28:02;9.00;;;8.20;;
2211;SDS011;48849;48.758;9.158;2023-05-01T04:30:29;11.07;;;8.98;;
2211;SDS011;48849;48.758;9.158;2023-05-01T04:32:56;9.30;;;8.50;;
2211;SDS011;48849;48.758;9.158;2023-05-01T04:35:23;10.30;;;9.40;;
2211;SDS011;48849;48.758;9.158;2023-05-01T04:37:50;9.98;;;9.15;;
2211;SDS011;48849;48.758;9.158;2023-05-01T04:40:19;9.40;;;8.50;;
2211;SDS011;48849;48.758;9.158;2023-05-01T04:42:46;9.80;;;8.05;;
2211;SDS011;48849;48.758;9.158;2023-05-01T04:45:13;9.90;;;8.90;;
2211;SDS011;48849;48.758;9.158;2023-05-01T04:47:40;9.40;;;8.30;;
2211;SDS011;48849;48.758;9.158;2023-05-01T04:50:08;9.27;;;8.43;;
2211;SDS011;48849;48.758;9.158;2023-05-01T04:52:35;11.98;;;9.60;;
2211;SDS011;48849;48.758;9.158;2023-05-01T04:55:02;10.48;;;9.38;;
2211;SDS011;48849;48.758;9.158;2023-05-01T04:57:31;10.00;;;9.10;;
2211;SDS011;48849;48.758;9.158;2023-05-01T04:59:58;10.40;;;9.40;;
2211;SDS011;48849;48.758;9.158;2023-05-01T05:02:25;10.23;;;9.20;;
2211;SDS011;48849;48.758;9.158;2023-05-01T05:04:53;10.73;;;9.63;;
2211;SDS011;48849;48.758;9.158;2023-05-01T05:07:22;11.40;;;9.18;;
2211;SDS011;48849;48.758;9.158;2023-05-01T05:09:49;11.13;;;10.02;;
2211;SDS011;48849;48.758;9.158;2023-05-01T05:12:16;12.82;;;9.57;;
2211;SDS011;48849;48.758;9.158;2023-05-01T05:14:44;9.90;;;9.05;;
2211;SDS011;48849;48.758;9.158;2023-05-01T05:17:12;9.40;;;8.40;;
2211;SDS011;48849;48.758;9.158;2023-05-01T05:19:38;9.07;;;8.27;;
2211;SDS011;48849;48.758;9.158;2023-05-01T05:22:05;10.45;;;9.00;;
2211;SDS011;48849;48.758;9.158;2023-05-01T05:24:32;10.18;;;9.27;;
2211;SDS011;48849;48.758;9.158;2023-05-01T05:27:00;9.57;;;8.68;;
2211;SDS011;48849;48.758;9.158;2023-05-01T05:29:28;10.50;;;9.20;;
2211;SDS011;48849;48.758;9.158;2023-05-01T05:31:56;10.10;;;9.20;;
2211;SDS011;48849;48.758;9.158;2023-05-01T05:34:23;10.88;;;9.77;;
2211;SDS011;48849;48.758;9.158;2023-05-01T05:36:50;10.48;;;9.38;;
2211;SDS011;48849;48.758;9.158;2023-05-01T05:39:17;10.43;;;9.40;;
2211;SDS011;48849;48.758;9.158;2023-05-01T05:41:47;10.38;;;9.48;;
2211;SDS011;48849;48.758;9.158;2023-05-01T05:44:14;10.82;;;9.65;;
2211;SDS011;48849;48.758;9.158;2023-05-01T05:46:41;10.00;;;9.00;;
2211;SDS011;48849;48.758;9.158;2023-05-01T05:49:10;10.32;;;9.30;;
2211;SDS011;48849;48.758;9.158;2023-05-01T05:51:37;10.93;;;9.82;;
2211;SDS011;48849;48.758;9.158;2023-05-01T05:54:04;10.68;;;9.68;;
2211;SDS011;48849;48.758;9.158;2023-05-01T05:56:31;9.52;;;8.60;;
2211;SDS011;48849;48.758;9.158;2023-05-01T05:58:58;10.32;;;9.15;;
2211;SDS011;48849;48.758;9.158;2023-05-01T06:01:27;11.23;;;9.15;;
2211;SDS011;48849;48.758;9.158;2023-05-01T06:04:01;10.30;;;9.32;;
2211;SDS011;48849;48.758;9.158;2023-05-01T06:09:08;10.63;;;9.63;;
2211;SDS011;48849;48.758;9.158;2023-05-01T06:11:38;10.10;;;9.00;;
2211;SDS011;48849;48.758;9.158;2023-05-01T06:14:05;9.80;;;8.85;;
2211;SDS011;48849;48.758;9.158;2023-05-01T06:16:35;12.95;;;10.10;;
2211;SDS011;48849;48.758;9.158;2023-05-01T06:19:06;11.90;;;10.10;;
2211;SDS011;48849;48.758;9.158;2023-05-01T06:21:34;10.48;;;9.48;;
2211;SDS011;48849;48.758;9.158;2023-05-01T06:24:03;10.98;;;9.90;;
2211;SDS011;48849;48.758;9.158;2023-05-01T06:26:30;10.50;;;9.40;;
2211;SDS011;48849;48.758;9.158;2023-05-01T06:28:56;11.65;;;10.55;;
2211;SDS011;48849;48.758;9.158;2023-05-01T06:31:23;12.32;;;10.15;;
2211;SDS011;48849;48.758;9.158;2023-05-01T06:33:51;10.43;;;9.48;;
2211;SDS011;48849;48.758;9.158;2023-05-01T06:36:17;10.52;;;9.50;;
2211;SDS011;48849;48.758;9.158;2023-05-01T06:38:44;10.48;;;9.57;;
2211;SDS011;48849;48.758;9.158;2023-05-01T06:41:14;10.70;;;9.70;;
2211;SDS011;48849;48.758;9.158;2023-05-01T06:43:41;10.25;;;9.07;;
2211;SDS011;48849;48.758;9.158;2023-05-01T06:46:08;10.93;;;9.93;;
2211;SDS011;48849;48.758;9.158;2023-05-01T06:48:36;11.32;;;10.32;;
2211;SDS011;48849;48.758;9.158;2023-05-01T06:51:03;10.60;;;9.50;;
2211;SDS011;48849;48.758;9.158;2023-05-01T06:53:30;9.00;;;8.15;;
2211;SDS011;48849;48.758;9.158;2023-05-01T06:55:57;9.20;;;8.40;;
2211;SDS011;48849;48.758;9.158;2023-05-01T06:58:26;10.85;;;9.65;;
2211;SDS011;48849;48.758;9.158;2023-05-01T07:00:59;8.65;;;7.90;;
2211;SDS011;48849;48.758;9.158;2023-05-01T07:07:00;8.68;;;7.78;;
2211;SDS011;48849;48.758;9.158;2023-05-01T07:09:27;8.23;;;7.53;;
2211;SDS011;48849;48.758;9.158;2023-05-01T07:11:54;8.23;;;7.53;;
2211;SDS011;48849;48.758;9.158;2023-05-01T07:14:24;8.07;;;7.35;;
2211;SDS011;48849;48.758;9.158;2023-05-01T07:17:06;8.98;;;7.78;;
2211;SDS011;48849;48.758;9.158;2023-05-01T07:19:33;8.70;;;7.90;;
2211;SDS011;48849;48.758;9.158;2023-05-01T07:21:59;8.25;;;7.55;;
2211;SDS011;48849;48.758;9.158;2023-05-01T07:24:30;9.05;;;8.27;;
2211;SDS011;48849;48.758;9.158;2023-05-01T07:26:59;8.70;;;7.95;;
2211;SDS011;48849;48.758;9.158;2023-05-01T07:29:28;8.15;;;7.40;;
2211;SDS011;48849;48.758;9.158;2023-05-01T07:32:00;8.75;;;7.95;;
2211;SDS011;48849;48.758;9.158;2023-05-01T07:34:34;8.73;;;7.90;;
2211;SDS011;48849;48.758;9.158;2023-05-01T07:37:04;8.85;;;7.93;;
2211;SDS011;48849;48.758;9.158;2023-05-01T07:39:45;8.55;;;7.75;;
2211;SDS011;48849;48.758;9.158;2023-05-01T07:42:12;9.45;;;7.70;;
2211;SDS011;48849;48.758;9.158;2023-05-01T07:44:40;8.10;;;7.40;;
2211;SDS011;48849;48.758;9.158;2023-05-01T07:47:07;8.52;;;7.82;;
2211;SDS011;48849;48.758;9.158;2023-05-01T07:49:34;9.07;;;8.18;;
2211;SDS011;48849;48.758;9.158;2023-05-01T07:52:05;8.27;;;7.55;;
2211;SDS011;48849;48.758;9.158;2023-05-01T07:54:36;8.80;;;7.63;;
2211;SDS011;48849;48.758;9.158;2023-05-01T07:57:04;8.25;;;7.55;;
2211;SDS011;48849;48.758;9.158;2023-05-01T07:59:31;8.68;;;7.97;;
2211;SDS011;48849;48.758;9.158;2023-05-01T08:01:59;9.60;;;8.70;;
2211;SDS011;48849;48.758;9.158;2023-05-01T08:04:27;8.60;;;7.80;;
2211;SDS011;48849;48.758;9.158;2023-05-01T08:06:55;10.65;;;8.40;;
2211;SDS011;48849;48.758;9.158;2023-05-01T08:09:21;8.73;;;7.88;;
2211;SDS011;48849;48.758;9.158;2023-05-01T08:11:48;9.18;;;8.38;;
2211;SDS011;48849;48.758;9.158;2023-05-01T08:14:15;8.48;;;7.32;;
2211;SDS011;48849;48.758;9.158;2023-05-01T08:16:43;9.35;;;8.45;;
2211;SDS011;48849;48.758;9.158;2023-05-01T08:19:11;9.55;;;8.65;;
2211;SDS011;48849;48.758;9.158;2023-05-01T11:31:17;8.55;;;7.75;;
2211;SDS011;48849;48.758;9.158;2023-05-01T11:42:21;8.63;;;7.78;;
2211;SDS011;48849;48.758;9.158;2023-05-01T11:51:10;8.60;;;7.72;;
2211;SDS011;48849;48.758;9.158;2023-05-01T11:57:06;8.55;;;7.75;;
2211;SDS011;48849;48.758;9.158;2023-05-01T11:59:33;10.23;;;9.07;;
2211;SDS011;48849;48.758;9.158;2023-05-01T12:02:00;9.52;;;8.68;;
2211;SDS011;48849;48.758;9.158;2023-05-01T12:04:28;9.05;;;7.75;;
2211;SDS011;48849;48.758;9.158;2023-05-01T12:06:55;9.45;;;8.55;;
2211;SDS011;48849;48.758;9.158;2023-05-01T12:09:23;8.43;;;7.63;;
2211;SDS011;48849;48.758;9.158;2023-05-01T12:15:16;8.65;;;7.85;;
2211;SDS011;48849;48.758;9.158;2023-05-01T12:20:53;9.98;;;9.10;;
2211;SDS011;48849;48.758;9.158;2023-05-01T12:23:31;9.20;;;8.45;;
2211;SDS011;48849;48.758;9.158;2023-05-01T12:26:01;8.88;;;8.10;;
2211;SDS011;48849;48.758;9.158;2023-05-01T12:29:20;8.75;;;8.05;;
2211;SDS011;48849;48.758;9.158;2023-05-01T12:31:47;8.75;;;7.95;;
2211;SDS011;48849;48.758;9.158;2023-05-01T12:53:36;8.50;;;7.80;;
2211;SDS011;48849;48.758;9.158;2023-05-01T12:56:16;8.63;;;7.80;;
2211;SDS011;48849;48.758;9.158;2023-05-01T12:58:51;8.43;;;7.63;;
2211;SDS011;48849;48.758;9.158;2023-05-01T13:01:33;8.90;;;8.00;;
2211;SDS011;48849;48.758;9.158;2023-05-01T13:22:08;9.98;;;8.25;;
2211;SDS011;48849;48.758;9.158;2023-05-01T13:24:47;9.48;;;8.48;;
2211;SDS011;48849;48.758;9.158;2023-05-01T13:27:15;8.55;;;7.78;;
2211;SDS011;48849;48.758;9.158;2023-05-01T13:29:57;7.70;;;6.95;;
2211;SDS011;48849;48.758;9.158;2023-05-01T13:32:26;9.00;;;8.13;;
2211;SDS011;48849;48.758;9.158;2023-05-01T13:34:53;9.10;;;8.30;;
2211;SDS011;48849;48.758;9.158;2023-05-01T13:37:30;8.68;;;7.88;;
2211;SDS011;48849;48.758;9.158;2023-05-01T13:40:09;9.30;;;8.50;;
2211;SDS011;48849;48.758;9.158;2023-05-01T13:42:50;9.10;;;8.35;;
2211;SDS011;48849;48.758;9.158;2023-05-01T13:45:20;10.13;;;9.23;;
2211;SDS011;48849;48.758;9.158;2023-05-01T13:47:50;10.85;;;9.75;;
2211;SDS011;48849;48.758;9.158;2023-05-01T13:50:31;13.23;;;11.98;;
2211;SDS011;48849;48.758;9.158;2023-05-01T13:53:08;12.63;;;11.43;;
2211;SDS011;48849;48.758;9.158;2023-05-01T13:55:38;12.25;;;11.18;;
2211;SDS011;48849;48.758;9.158;2023-05-01T14:01:46;11.73;;;10.73;;
2211;SDS011;48849;48.758;9.158;2023-05-01T14:04:27;12.57;;;11.52;;
2211;SDS011;48849;48.758;9.158;2023-05-01T14:06:58;13.35;;;12.05;;
2211;SDS011;48849;48.758;9.158;2023-05-01T14:09:27;14.52;;;11.77;;
2211;SDS011;48849;48.758;9.158;2023-05-01T14:12:00;13.32;;;12.07;;
2211;SDS011;48849;48.758;9.158;2023-05-01T14:14:27;13.40;;;12.10;;
2211;SDS011;48849;48.758;9.158;2023-05-01T14:16:55;12.35;;;11.25;;
2211;SDS011;48849;48.758;9.158;2023-05-01T14:19:22;13.90;;;12.27;;
2211;SDS011;48849;48.758;9.158;2023-05-01T14:21:49;16.55;;;13.90;;
2211;SDS011;48849;48.758;9.158;2023-05-01T14:24:15;20.70;;;18.73;;
2211;SDS011;48849;48.758;9.158;2023-05-01T14:26:44;16.15;;;14.55;;
2211;SDS011;48849;48.758;9.158;2023-05-01T14:29:16;13.82;;;12.45;;
2211;SDS011;48849;48.758;9.158;2023-05-01T14:31:51;13.57;;;12.35;;
2211;SDS011;48849;48.758;9.158;2023-05-01T14:34:19;13.00;;;11.90;;
2211;SDS011;48849;48.758;9.158;2023-05-01T14:36:46;15.98;;;11.80;;
2211;SDS011;48849;48.758;9.158;2023-05-01T14:39:13;11.88;;;10.68;;
2211;SDS011;48849;48.758;9.158;2023-05-01T14:41:41;11.30;;;10.15;;
2211;SDS011;48849;48.758;9.158;2023-05-01T14:44:11;13.25;;;10.38;;
2211;SDS011;48849;48.758;9.158;2023-05-01T14:46:42;10.50;;;9.50;;
2211;SDS011;48849;48.758;9.158;2023-05-01T14:49:12;10.32;;;9.52;;
2211;SDS011;48849;48.758;9.158;2023-05-01T14:51:44;10.95;;;10.05;;
2211;SDS011;48849;48.758;9.158;2023-05-01T14:54:11;10.25;;;9.30;;
2211;SDS011;48849;48.758;9.158;2023-05-01T14:56:38;9.77;;;8.98;;
2211;SDS011;48849;48.758;9.158;2023-05-01T14:59:21;9.52;;;8.57;;
2211;SDS011;48849;48.758;9.158;2023-05-01T15:01:51;8.70;;;8.00;;
2211;SDS011;48849;48.758;9.158;2023-05-01T15:04:19;9.57;;;8.68;;
2211;SDS011;48849;48.758;9.158;2023-05-01T15:06:46;8.50;;;7.80;;
2211;SDS011;48849;48.758;9.158;2023-05-01T15:09:13;8.90;;;8.10;;
2211;SDS011;48849;48.758;9.158;2023-05-01T15:11:39;10.02;;;8.10;;
2211;SDS011;48849;48.758;9.158;2023-05-01T15:14:10;9.30;;;8.50;;
2211;SDS011;48849;48.758;9.158;2023-05-01T15:16:41;11.02;;;10.02;;
2211;SDS011;48849;48.758;9.158;2023-05-01T15:19:14;12.73;;;11.52;;
2211;SDS011;48849;48.758;9.158;2023-05-01T15:21:50;12.52;;;11.32;;
2211;SDS011;48849;48.758;9.158;2023-05-01T15:27:15;13.98;;;12.45;;
2211;SDS011;48849;48.758;9.158;2023-05-01T15:29:45;15.15;;;13.75;;
2211;SDS011;48849;48.758;9.158;2023-05-01T15:32:22;15.52;;;14.02;;
2211;SDS011;48849;48.758;9.158;2023-05-01T15:34:57;14.52;;;13.00;;
2211;SDS011;48849;48.758;9.158;2023-05-01T15:41:09;13.85;;;12.52;;
2211;SDS011;48849;48.758;9.158;2023-05-01T15:43:39;11.43;;;10.38;;
2211;SDS011;48849;48.758;9.158;2023-05-01T15:46:12;16.38;;;11.00;;
2211;SDS011;48849;48.758;9.158;2023-05-01T15:51:55;8.63;;;7.82;;
2211;SDS011;48849;48.758;9.158;2023-05-01T15:54:24;7.95;;;7.20;;
2211;SDS011;48849;48.758;9.158;2023-05-01T15:56:58;8.50;;;7.75;;
2211;SDS011;48849;48.758;9.158;2023-05-01T15:59:27;6.75;;;6.15;;
2211;SDS011;48849;48.758;9.158;2023-05-01T16:02:02;7.72;;;6.20;;
2211;SDS011;48849;48.758;9.158;2023-05-01T16:04:43;7.57;;;6.90;;
2211;SDS011;48849;48.758;9.158;2023-05-01T16:07:13;8.50;;;7.80;;
2211;SDS011;48849;48.758;9.158;2023-05-01T16:09:48;9.18;;;8.32;;
2211;SDS011;48849;48.758;9.158;2023-05-01T16:12:35;8.13;;;7.43;;
2211;SDS011;48849;48.758;9.158;2023-05-01T16:15:08;10.32;;;9.10;;
2211;SDS011;48849;48.758;9.158;2023-05-01T16:17:57;11.90;;;9.73;;
2211;SDS011;48849;48.758;9.158;2023-05-01T16:20:30;9.38;;;8.48;;
2211;SDS011;48849;48.758;9.158;2023-05-01T16:23:00;8.90;;;8.20;;
2211;SDS011;48849;48.758;9.158;2023-05-01T16:25:32;14.38;;;8.45;;
2211;SDS011;48849;48.758;9.158;2023-05-01T16:28:02;9.45;;;8.55;;
2211;SDS011;48849;48.758;9.158;2023-05-01T16:30:39;7.95;;;7.20;;
2211;SDS011;48849;48.758;9.158;2023-05-01T16:33:13;9.00;;;8.10;;
2211;SDS011;48849;48.758;9.158;2023-05-01T16:35:48;8.90;;;8.10;;
2211;SDS011;48849;48.758;9.158;2023-05-01T16:38:21;10.13;;;9.15;;
2211;SDS011;48849;48.758;9.158;2023-05-01T16:40:59;9.05;;;8.15;;
2211;SDS011;48849;48.758;9.158;2023-05-01T16:43:26;8.82;;;8.05;;
2211;SDS011;48849;48.758;9.158;2023-05-01T16:45:53;8.60;;;7.80;;
2211;SDS011;48849;48.758;9.158;2023-05-01T16:48:23;8.73;;;7.57;;
2211;SDS011;48849;48.758;9.158;2023-05-01T16:50:53;10.00;;;8.88;;
2211;SDS011;48849;48.758;9.158;2023-05-01T16:53:42;10.70;;;8.80;;
2211;SDS011;48849;48.758;9.158;2023-05-01T17:12:29;7.47;;;6.78;;
2211;SDS011;48849;48.758;9.158;2023-05-01T17:22:23;6.13;;;4.93;;
2211;SDS011;48849;48.758;9.158;2023-05-01T17:31:31;6.00;;;5.40;;
2211;SDS011;48849;48.758;9.158;2023-05-01T17:34:50;6.60;;;6.00;;
2211;SDS011;48849;48.758;9.158;2023-05-01T17:37:19;5.97;;;5.47;;
2211;SDS011;48849;48.758;9.158;2023-05-01T17:40:22;7.03;;;5.35;;
2211;SDS011;48849;48.758;9.158;2023-05-01T17:46:41;7.38;;;6.30;;
2211;SDS011;48849;48.758;9.158;2023-05-01T17:49:08;7.47;;;6.32;;
2211;SDS011;48849;48.758;9.158;2023-05-01T17:51:56;5.15;;;4.75;;
2211;SDS011;48849;48.758;9.158;2023-05-01T17:54:42;8.77;;;5.50;;
2211;SDS011;48849;48.758;9.158;2023-05-01T18:00:27;5.22;;;4.72;;
2211;SDS011;48849;48.758;9.158;2023-05-01T18:03:02;5.95;;;4.78;;
2211;SDS011;48849;48.758;9.158;2023-05-01T18:08:25;6.30;;;5.80;;
2211;SDS011;48849;48.758;9.158;2023-05-01T18:10:58;6.15;;;5.40;;
2211;SDS011;48849;48.758;9.158;2023-05-01T18:13:32;6.38;;;5.35;;
2211;SDS011;48849;48.758;9.158;2023-05-01T18:16:09;7.57;;;6.88;;
2211;SDS011;48849;48.758;9.158;2023-05-01T18:22:07;7.93;;;7.13;;
2211;SDS011;48849;48.758;9.158;2023-05-01T18:24:45;7.40;;;6.70;;
2211;SDS011;48849;48.758;9.158;2023-05-01T18:27:26;6.60;;;6.00;;
2211;SDS011;48849;48.758;9.158;2023-05-01T18:30:01;6.65;;;6.05;;
2211;SDS011;48849;48.758;9.158;2023-05-01T18:39:23;6.15;;;5.65;;
2211;SDS011;48849;48.758;9.158;2023-05-01T18:42:09;7.00;;;6.43;;
2211;SDS011;48849;48.758;9.158;2023-05-01T18:44:46;7.60;;;6.80;;
2211;SDS011;48849;48.758;9.158;2023-05-01T18:47:33;7.53;;;6.82;;
2211;SDS011;48849;48.758;9.158;2023-05-01T18:50:00;8.75;;;7.82;;
2211;SDS011;48849;48.758;9.158;2023-05-01T18:52:56;8.32;;;7.63;;
2211;SDS011;48849;48.758;9.158;2023-05-01T18:55:26;8.80;;;7.93;;
2211;SDS011;48849;48.758;9.158;2023-05-01T18:58:17;12.18;;;10.75;;
2211;SDS011;48849;48.758;9.158;2023-05-01T19:00:57;10.77;;;9.70;;
2211;SDS011;48849;48.758;9.158;2023-05-01T19:03:41;9.75;;;8.85;;
2211;SDS011;48849;48.758;9.158;2023-05-01T19:06:25;9.10;;;8.25;;
2211;SDS011;48849;48.758;9.158;2023-05-01T19:09:11;8.43;;;7.72;;
2211;SDS011;48849;48.758;9.158;2023-05-01T19:12:05;9.02;;;8.23;;
2211;SDS011;48849;48.758;9.158;2023-05-01T19:14:41;8.55;;;7.80;;
2211;SDS011;48849;48.758;9.158;2023-05-01T19:17:33;10.13;;;9.00;;
2211;SDS011;48849;48.758;9.158;2023-05-01T19:23:33;10.90;;;8.00;;
2211;SDS011;48849;48.758;9.158;2023-05-01T19:26:10;8.52;;;7.82;;
2211;SDS011;48849;48.758;9.158;2023-05-01T19:35:39;8.80;;;8.00;;
2211;SDS011;48849;48.758;9.158;2023-05-01T19:52:14;8.02;;;7.32;;
2211;SDS011;48849;48.758;9.158;2023-05-01T20:00:43;7.10;;;6.50;;
2211;SDS011;48849;48.758;9.158;2023-05-01T20:03:11;7.07;;;6.47;;
2211;SDS011;48849;48.758;9.158;2023-05-01T20:09:39;6.60;;;5.97;;
2211;SDS011;48849;48.758;9.158;2023-05-01T20:12:09;7.95;;;6.57;;
2211;SDS011;48849;48.758;9.158;2023-05-01T20:14:42;6.90;;;6.30;;
2211;SDS011;48849;48.758;9.158;2023-05-01T20:17:20;6.78;;;6.10;;
2211;SDS011;48849;48.758;9.158;2023-05-01T20:19:47;7.25;;;6.60;;
2211;SDS011;48849;48.758;9.158;2023-05-01T20:22:15;6.88;;;6.38;;
2211;SDS011;48849;48.758;9.158;2023-05-01T20:24:57;6.30;;;5.70;;
2211;SDS011;48849;48.758;9.158;2023-05-01T20:27:26;6.68;;;5.60;;
2211;SDS011;48849;48.758;9.158;2023-05-01T20:29:54;6.75;;;6.13;;
2211;SDS011;48849;48.758;9.158;2023-05-01T20:32:21;6.93;;;6.35;;
2211;SDS011;48849;48.758;9.158;2023-05-01T20:34:48;10.65;;;6.85;;
2211;SDS011;48849;48.758;9.158;2023-05-01T20:37:15;7.30;;;6.70;;
2211;SDS011;48849;48.758;9.158;2023-05-01T20:39:43;7.18;;;6.47;;
2211;SDS011;48849;48.758;9.158;2023-05-01T20:42:11;7.43;;;6.72;;
2211;SDS011;48849;48.758;9.158;2023-05-01T20:44:38;7.68;;;6.93;;
2211;SDS011;48849;48.758;9.158;2023-05-01T20:47:04;6.70;;;6.10;;
2211;SDS011;48849;48.758;9.158;2023-05-01T20:49:31;6.57;;;5.97;;
2211;SDS011;48849;48.758;9.158;2023-05-01T20:51:59;6.50;;;5.90;;
2211;SDS011;48849;48.758;9.158;2023-05-01T20:54:26;7.22;;;6.60;;
2211;SDS011;48849;48.758;9.158;2023-05-01T20:56:56;6.93;;;6.22;;
2211;SDS011;48849;48.758;9.158;2023-05-01T20:59:27;7.13;;;6.53;;
2211;SDS011;48849;48.758;9.158;2023-05-01T21:01:54;7.18;;;6.55;;
2211;SDS011;48849;48.758;9.158;2023-05-01T21:04:22;7.38;;;6.68;;
2211;SDS011;48849;48.758;9.158;2023-05-01T21:06:49;6.68;;;6.07;;
2211;SDS011;48849;48.758;9.158;2023-05-01T21:09:17;7.07;;;6.30;;
2211;SDS011;48849;48.758;9.158;2023-05-01T21:11:44;7.18;;;6.50;;
2211;SDS011;48849;48.758;9.158;2023-05-01T21:14:11;7.22;;;6.40;;
2211;SDS011;48849;48.758;9.158;2023-05-01T21:16:39;6.65;;;6.05;;